createdAt,value
2018-12-20T00:02:16.338Z,3.20
2018-12-20T00:07:09.511Z,3.20
2018-12-20T00:12:03.548Z,3.20
2018-12-20T00:17:02.252Z,3.20
2018-12-20T00:21:56.251Z,3.20
2018-12-20T00:26:50.974Z,3.20
2018-12-20T00:31:44.864Z,3.30
2018-12-20T00:36:38.750Z,3.30
2018-12-20T00:41:32.460Z,3.30
2018-12-20T00:46:25.505Z,3.30
2018-12-20T00:51:18.750Z,3.30
2018-12-20T00:56:12.174Z,3.30
2018-12-20T01:01:06.135Z,3.30
2018-12-20T01:06:00.038Z,3.30
2018-12-20T01:10:53.002Z,3.30
2018-12-20T01:15:46.284Z,3.30
2018-12-20T01:20:40.341Z,3.30
2018-12-20T01:25:34.676Z,3.30
2018-12-20T01:30:27.913Z,3.30
2018-12-20T01:35:22.548Z,3.40
2018-12-20T01:40:15.628Z,3.30
2018-12-20T01:45:08.670Z,3.30
2018-12-20T01:50:01.785Z,3.30
2018-12-20T01:54:55.018Z,3.40
2018-12-20T01:59:48.113Z,3.30
2018-12-20T02:04:41.323Z,3.40
2018-12-20T02:09:34.801Z,3.30
2018-12-20T02:14:35.714Z,3.30
2018-12-20T02:19:29.517Z,3.30
2018-12-20T02:24:22.594Z,3.30
2018-12-20T02:29:16.977Z,3.30
2018-12-20T02:34:10.480Z,3.20
2018-12-20T02:39:06.557Z,3.10
2018-12-20T02:43:59.631Z,3.10
2018-12-20T02:48:52.926Z,3.10
2018-12-20T02:53:46.225Z,3.10
2018-12-20T02:58:39.251Z,3.00
2018-12-20T03:03:32.263Z,3.00
2018-12-20T03:08:25.531Z,3.00
2018-12-20T03:13:18.563Z,3.00
2018-12-20T03:18:11.580Z,3.00
2018-12-20T03:23:06.036Z,3.00
2018-12-20T03:27:58.951Z,3.00
2018-12-20T03:32:52.121Z,3.00
2018-12-20T03:37:45.205Z,3.00
2018-12-20T03:42:38.380Z,3.00
2018-12-20T03:47:31.349Z,3.00
2018-12-20T03:52:24.462Z,3.00
2018-12-20T03:57:17.880Z,3.00
2018-12-20T04:02:10.942Z,3.00
2018-12-20T04:07:04.344Z,3.00
2018-12-20T04:11:58.317Z,2.90
2018-12-20T04:16:52.095Z,2.80
2018-12-20T04:21:45.605Z,2.80
2018-12-20T04:26:38.685Z,2.80
2018-12-20T04:31:31.903Z,2.80
2018-12-20T04:36:25.887Z,2.80
2018-12-20T04:41:19.202Z,2.70
2018-12-20T04:46:12.381Z,2.60
2018-12-20T04:51:05.847Z,2.70
2018-12-20T04:55:58.787Z,2.70
2018-12-20T05:00:52.096Z,2.70
2018-12-20T05:05:45.350Z,2.70
2018-12-20T05:10:38.853Z,2.70
2018-12-20T05:15:31.923Z,2.60
2018-12-20T05:20:26.184Z,2.70
2018-12-20T05:25:19.506Z,2.70
2018-12-20T05:30:12.966Z,2.70
2018-12-20T05:35:07.287Z,2.60
2018-12-20T05:40:00.833Z,2.70
2018-12-20T05:44:54.459Z,2.60
2018-12-20T05:49:48.079Z,2.60
2018-12-20T05:54:41.261Z,2.60
2018-12-20T05:59:34.293Z,2.60
2018-12-20T06:04:29.039Z,2.60
2018-12-20T06:09:22.426Z,2.60
2018-12-20T06:14:15.766Z,2.60
2018-12-20T06:19:08.941Z,2.60
2018-12-20T06:24:09.857Z,2.60
2018-12-20T06:29:10.202Z,2.60
2018-12-20T06:34:03.990Z,2.60
2018-12-20T06:38:58.082Z,2.70
2018-12-20T06:43:52.793Z,2.60
2018-12-20T06:48:45.761Z,2.60
2018-12-20T06:53:39.574Z,2.60
2018-12-20T06:58:34.315Z,2.70
2018-12-20T07:03:27.837Z,2.70
2018-12-20T07:08:21.828Z,2.70
2018-12-20T07:13:16.086Z,2.80
2018-12-20T07:18:09.464Z,2.80
2018-12-20T07:23:05.367Z,2.80
2018-12-20T07:28:00.076Z,2.90
2018-12-20T07:32:52.926Z,2.90
2018-12-20T07:37:47.560Z,2.90
2018-12-20T07:42:41.390Z,3.00
2018-12-20T07:47:36.507Z,3.00
2018-12-20T07:52:30.009Z,3.00
2018-12-20T07:57:24.837Z,3.00
2018-12-20T08:02:18.211Z,3.10
2018-12-20T08:07:12.013Z,3.10
2018-12-20T08:12:05.067Z,3.10
2018-12-20T08:16:59.440Z,3.10
2018-12-20T08:21:56.273Z,3.20
2018-12-20T08:26:49.293Z,3.20
2018-12-20T08:31:42.478Z,3.30
2018-12-20T08:36:35.536Z,3.30
2018-12-20T08:41:29.318Z,3.40
2018-12-20T08:46:22.284Z,3.40
2018-12-20T08:51:15.356Z,3.50
2018-12-20T08:56:08.943Z,3.50
2018-12-20T09:01:02.422Z,3.60
2018-12-20T09:05:55.286Z,3.70
2018-12-20T09:10:50.461Z,3.70
2018-12-20T09:15:44.099Z,3.70
2018-12-20T09:20:37.094Z,3.60
2018-12-20T09:25:30.472Z,3.60
2018-12-20T09:30:30.421Z,3.60
2018-12-20T09:35:21.691Z,3.70
2018-12-20T09:40:14.662Z,3.80
2018-12-20T09:45:07.731Z,3.80
2018-12-20T09:50:00.804Z,3.80
2018-12-20T09:54:54.443Z,3.90
2018-12-20T09:59:47.557Z,4.00
2018-12-20T10:04:42.537Z,4.10
2018-12-20T10:09:35.723Z,4.30
2018-12-20T10:14:29.124Z,4.50
2018-12-20T10:19:22.300Z,4.50
2018-12-20T10:24:15.606Z,4.50
2018-12-20T10:29:08.439Z,4.40
2018-12-20T10:34:02.532Z,4.40
2018-12-20T10:38:55.750Z,4.40
2018-12-20T10:43:49.690Z,4.30
2018-12-20T10:48:44.098Z,4.40
2018-12-20T10:53:36.977Z,4.50
2018-12-20T10:58:30.012Z,4.60
2018-12-20T11:03:28.854Z,4.60
2018-12-20T11:08:24.050Z,4.80
2018-12-20T11:13:23.112Z,4.90
2018-12-20T11:18:18.103Z,5.00
2018-12-20T11:23:15.208Z,5.40
2018-12-20T11:28:08.425Z,5.70
2018-12-20T11:33:01.394Z,5.90
2018-12-20T11:37:55.794Z,5.70
2018-12-20T11:42:48.659Z,5.60
2018-12-20T11:47:46.074Z,5.60
2018-12-20T11:52:42.281Z,5.50
2018-12-20T11:57:33.826Z,5.50
2018-12-20T12:02:26.820Z,5.30
2018-12-20T12:07:20.023Z,5.20
2018-12-20T12:12:13.080Z,5.30
2018-12-20T12:17:07.195Z,5.20
2018-12-20T12:22:00.186Z,5.20
2018-12-20T12:26:53.261Z,5.10
2018-12-20T12:31:46.327Z,5.30
2018-12-20T12:36:39.237Z,5.50
2018-12-20T12:41:32.672Z,5.50
2018-12-20T12:46:25.541Z,5.50
2018-12-20T12:51:19.616Z,5.40
2018-12-20T12:56:13.216Z,5.40
2018-12-20T13:01:06.079Z,5.30
2018-12-20T13:05:58.997Z,5.20
2018-12-20T13:10:52.985Z,5.10
2018-12-20T13:15:45.809Z,5.10
2018-12-20T13:20:38.670Z,5.10
2018-12-20T13:25:32.251Z,5.10
2018-12-20T13:30:26.143Z,5.20
2018-12-20T13:35:19.007Z,5.10
2018-12-20T13:40:11.974Z,5.10
2018-12-20T13:45:06.012Z,5.10
2018-12-20T13:49:58.936Z,5.10
2018-12-20T13:54:59.378Z,5.20
2018-12-20T13:59:52.240Z,5.10
2018-12-20T14:04:47.919Z,5.10
2018-12-20T14:09:40.946Z,5.10
2018-12-20T14:14:34.347Z,5.10
2018-12-20T14:19:27.441Z,5.10
2018-12-20T14:24:21.202Z,5.20
2018-12-20T14:36:24.244Z,5.10
2018-12-20T14:41:17.198Z,5.10
2018-12-20T14:46:11.963Z,5.10
2018-12-20T14:51:06.131Z,5.10
2018-12-20T14:56:00.107Z,5.20
2018-12-20T15:00:55.948Z,5.20
2018-12-20T15:05:49.158Z,5.20
2018-12-20T15:10:42.377Z,5.20
2018-12-20T15:15:35.832Z,5.10
2018-12-20T15:20:28.839Z,5.10
2018-12-20T15:25:23.719Z,5.10
2018-12-20T15:30:16.646Z,5.10
2018-12-20T15:35:09.573Z,5.10
2018-12-20T15:40:02.558Z,5.10
2018-12-20T15:44:55.526Z,5.10
2018-12-20T15:49:48.779Z,5.10
2018-12-20T15:54:41.855Z,5.20
2018-12-20T15:59:36.257Z,5.20
2018-12-20T16:04:31.201Z,5.10
2018-12-20T16:09:25.692Z,5.10
2018-12-20T16:14:19.504Z,5.10
2018-12-20T16:19:12.427Z,5.10
2018-12-20T16:24:06.626Z,5.10
2018-12-20T16:29:01.097Z,5.20
2018-12-20T16:33:54.001Z,5.30
2018-12-20T16:38:48.602Z,5.40
2018-12-20T16:43:43.222Z,5.40
2018-12-20T16:48:36.277Z,5.40
2018-12-20T16:53:30.203Z,5.40
2018-12-20T16:58:23.289Z,5.30
2018-12-20T17:03:24.193Z,5.30
2018-12-20T17:08:17.162Z,5.20
2018-12-20T17:13:12.513Z,5.20
2018-12-20T17:18:08.428Z,5.10
2018-12-20T17:23:01.971Z,5.10
2018-12-20T17:27:57.742Z,5.10
2018-12-20T17:32:52.252Z,5.10
2018-12-20T17:37:45.209Z,5.10
2018-12-20T17:42:38.959Z,5.20
2018-12-20T17:47:37.232Z,5.20
2018-12-20T17:52:30.975Z,5.20
2018-12-20T17:57:26.452Z,5.20
2018-12-20T18:02:19.578Z,5.20
2018-12-20T18:07:12.860Z,5.20
2018-12-20T18:12:07.379Z,5.20
2018-12-20T18:17:02.914Z,5.20
2018-12-20T18:21:56.570Z,5.20
2018-12-20T18:26:49.540Z,5.30
2018-12-20T18:31:43.300Z,5.30
2018-12-20T18:36:40.561Z,5.30
2018-12-20T18:41:33.561Z,5.40
2018-12-20T18:46:26.422Z,5.40
2018-12-20T18:51:19.392Z,5.40
2018-12-20T18:56:12.264Z,5.40
2018-12-20T19:01:05.244Z,5.40
2018-12-20T19:05:58.295Z,5.40
2018-12-20T19:10:51.916Z,5.50
2018-12-20T19:15:46.689Z,5.50
2018-12-20T19:20:40.285Z,5.50
2018-12-20T19:25:34.104Z,5.50
2018-12-20T19:30:27.729Z,5.40
2018-12-20T19:35:21.840Z,5.40
2018-12-20T19:40:15.894Z,5.40
2018-12-20T19:45:08.808Z,5.40
2018-12-20T19:50:05.085Z,5.40
2018-12-20T19:54:56.844Z,5.40
2018-12-20T19:59:50.657Z,5.50
2018-12-20T20:04:43.629Z,5.50
2018-12-20T20:09:36.607Z,5.50
2018-12-20T20:14:29.891Z,5.60
2018-12-20T20:19:24.324Z,5.70
2018-12-20T20:24:17.357Z,5.70
2018-12-20T20:29:10.257Z,5.80
2018-12-20T20:34:03.299Z,5.80
2018-12-20T20:39:01.990Z,5.90
2018-12-20T20:43:51.708Z,6.00
2018-12-20T20:48:44.657Z,6.10
2018-12-20T20:53:38.034Z,6.10
2018-12-20T20:58:31.206Z,6.20
2018-12-20T21:03:24.175Z,6.30
2018-12-20T21:08:17.140Z,6.40
2018-12-20T21:13:10.007Z,6.40
2018-12-20T21:18:04.184Z,6.40
2018-12-20T21:23:01.779Z,6.50
2018-12-20T21:27:54.685Z,6.60
2018-12-20T21:32:48.375Z,6.60
2018-12-20T21:37:41.404Z,6.70
2018-12-20T21:42:34.675Z,6.80
2018-12-20T21:47:29.795Z,6.70
2018-12-20T21:52:22.867Z,6.70
2018-12-20T21:57:17.471Z,6.80
2018-12-20T22:02:11.572Z,6.90
2018-12-20T22:07:05.924Z,7.00
2018-12-20T22:12:03.671Z,7.00
2018-12-20T22:16:56.874Z,6.90
2018-12-20T22:21:51.156Z,6.70
2018-12-20T22:26:44.247Z,6.70
2018-12-20T22:31:38.202Z,6.70
2018-12-20T22:36:31.050Z,6.70
2018-12-20T22:41:24.944Z,6.70
2018-12-20T22:46:18.012Z,6.70
2018-12-20T22:51:11.733Z,6.80
2018-12-20T22:56:04.868Z,6.80
2018-12-20T23:01:00.915Z,6.80
2018-12-20T23:05:53.917Z,6.90
2018-12-20T23:10:46.981Z,7.00
2018-12-20T23:15:39.807Z,7.10
2018-12-20T23:20:32.876Z,7.30
2018-12-20T23:25:25.844Z,7.40
2018-12-20T23:30:18.711Z,7.50
2018-12-20T23:35:11.611Z,7.50
2018-12-20T23:40:08.436Z,7.60
2018-12-20T23:45:04.276Z,7.60
2018-12-20T23:49:57.433Z,7.50
2018-12-20T23:54:51.134Z,7.50
2018-12-20T23:59:44.919Z,7.50
